Time;durP1;ratioP1;P1;durP2;ratioP2;P2;SDS_P1;SDS_P2;PMS_P1;PMS_P2;Temp;Humidity;BMP_temperature;BMP_pressure;BME280_temperature;BME280_humidity;BME280_pressure;Samples;Min_cycle;Max_cycle;Signal;HPM_P1;HPM_P2
2021/07/28 00:00:22;;;;;;;5.33;4.83;;;19.20;99.90;;;;;;5060834;28;20445;-83
2021/07/28 00:02:49;;;;;;;5.47;4.73;;;19.30;99.90;;;;;;5059810;28;20443;-82
2021/07/28 00:05:16;;;;;;;5.70;5.00;;;19.30;99.90;;;;;;5057854;28;20473;-82
2021/07/28 00:07:43;;;;;;;9.23;5.47;;;19.20;99.90;;;;;;5068332;28;20468;-84
2021/07/28 00:10:11;;;;;;;7.27;5.00;;;19.10;99.90;;;;;;5061837;28;20461;-84
2021/07/28 00:12:38;;;;;;;6.23;5.63;;;19.10;99.90;;;;;;5061871;28;20442;-83
2021/07/28 00:15:07;;;;;;;6.70;6.10;;;19.10;99.90;;;;;;5064996;28;20449;-82
2021/07/28 00:17:38;;;;;;;7.13;6.30;;;19.10;99.90;;;;;;5063625;28;20461;-83
2021/07/28 00:20:11;;;;;;;6.33;5.30;;;19.10;99.90;;;;;;5060239;28;20459;-83
2021/07/28 00:25:22;;;;;;;6.10;5.50;;;19.00;99.90;;;;;;5048510;28;20425;-83
2021/07/28 00:27:50;;;;;;;7.27;6.57;;;19.00;99.90;;;;;;5051523;28;20454;-84
2021/07/28 00:30:18;;;;;;;8.77;7.50;;;19.00;99.90;;;;;;5064888;28;20509;-83
2021/07/28 00:32:47;;;;;;;8.00;6.60;;;19.10;99.90;;;;;;5064134;28;20434;-84
2021/07/28 00:35:14;;;;;;;8.67;7.60;;;19.10;99.90;;;;;;5053697;28;20484;-84
2021/07/28 00:37:44;;;;;;;8.50;7.00;;;19.10;99.90;;;;;;5061395;28;20497;-84
2021/07/28 00:40:13;;;;;;;8.50;7.60;;;19.00;99.90;;;;;;5053484;28;20447;-83
2021/07/28 00:42:40;;;;;;;8.60;7.70;;;19.00;99.90;;;;;;5059558;28;20454;-83
2021/07/28 00:45:08;;;;;;;9.43;8.53;;;19.00;99.90;;;;;;5047460;28;20798;-84
2021/07/28 00:47:35;;;;;;;10.43;8.20;;;19.00;99.90;;;;;;5054302;28;20470;-84
2021/07/28 00:50:05;;;;;;;10.97;9.10;;;18.80;99.90;;;;;;5048752;28;20500;-84
2021/07/28 00:52:37;;;;;;;9.60;8.37;;;18.80;99.90;;;;;;5053915;28;20452;-83
2021/07/28 00:55:05;;;;;;;9.70;8.80;;;18.70;99.90;;;;;;5057920;28;20504;-84
2021/07/28 00:57:32;;;;;;;9.53;8.60;;;18.50;99.90;;;;;;5055867;28;20481;-83
2021/07/28 01:00:01;;;;;;;12.77;9.80;;;18.40;99.90;;;;;;5055814;28;20446;-83
2021/07/28 01:02:28;;;;;;;10.30;7.73;;;18.40;99.90;;;;;;5055937;28;20439;-84
2021/07/28 01:04:55;;;;;;;9.00;8.10;;;18.40;99.90;;;;;;5060225;28;20457;-84
2021/07/28 01:07:24;;;;;;;9.40;8.57;;;18.40;99.90;;;;;;5058414;28;20468;-82
2021/07/28 01:09:52;;;;;;;11.23;10.07;;;18.40;99.90;;;;;;5060604;28;20486;-84
2021/07/28 01:12:19;;;;;;;12.57;10.17;;;18.40;99.90;;;;;;5062956;28;20443;-84
2021/07/28 01:14:49;;;;;;;9.70;8.70;;;18.30;99.90;;;;;;5066750;28;20452;-84
2021/07/28 01:17:16;;;;;;;12.50;11.20;;;18.40;99.90;;;;;;5060737;28;20461;-83
2021/07/28 01:19:49;;;;;;;11.87;10.50;;;18.40;99.90;;;;;;5057396;28;20453;-84
2021/07/28 01:22:16;;;;;;;13.47;11.13;;;18.40;99.90;;;;;;5064524;28;20454;-84
2021/07/28 01:24:45;;;;;;;11.70;9.47;;;18.40;99.90;;;;;;5067518;28;20453;-84
2021/07/28 01:27:13;;;;;;;11.37;10.17;;;18.40;99.90;;;;;;5056984;28;20466;-84
2021/07/28 01:29:40;;;;;;;12.13;10.23;;;18.40;99.90;;;;;;5059221;28;20481;-82
2021/07/28 01:32:08;;;;;;;12.43;11.23;;;18.40;99.90;;;;;;5061446;28;20443;-83
2021/07/28 01:34:35;;;;;;;12.53;11.20;;;18.40;99.90;;;;;;5066368;28;20438;-84
2021/07/28 01:37:05;;;;;;;11.00;9.90;;;18.30;99.90;;;;;;5056853;28;20477;-84
2021/07/28 01:39:33;;;;;;;12.30;11.07;;;18.30;99.90;;;;;;5051986;28;20469;-84
2021/07/28 01:42:02;;;;;;;12.40;11.17;;;18.30;99.90;;;;;;5052019;28;20916;-82
2021/07/28 01:44:32;;;;;;;15.50;11.73;;;18.30;99.90;;;;;;5056199;28;20920;-82
2021/07/28 01:46:59;;;;;;;13.57;11.47;;;18.20;99.90;;;;;;5055854;28;20472;-83
2021/07/28 01:49:26;;;;;;;13.03;11.57;;;18.20;99.90;;;;;;5054146;28;20481;-83
2021/07/28 01:51:53;;;;;;;11.43;10.20;;;18.20;99.90;;;;;;5063429;28;20946;-82
2021/07/28 01:54:20;;;;;;;13.57;12.00;;;18.20;99.90;;;;;;5058298;28;20450;-84
2021/07/28 01:56:47;;;;;;;11.57;10.37;;;18.20;99.90;;;;;;5052358;28;20457;-83
2021/07/28 01:59:16;;;;;;;13.20;10.33;;;18.10;99.90;;;;;;5061145;28;20442;-82
2021/07/28 02:01:43;;;;;;;12.70;11.37;;;18.00;99.90;;;;;;5067263;28;20456;-82
2021/07/28 02:04:11;;;;;;;11.30;10.20;;;18.00;99.90;;;;;;5044408;28;20451;-85
2021/07/28 02:06:38;;;;;;;12.90;11.00;;;18.00;99.90;;;;;;5046995;28;20463;-82
2021/07/28 02:09:06;;;;;;;13.25;11.93;;;17.90;99.90;;;;;;5044179;28;20483;-82
2021/07/28 02:11:34;;;;;;;12.93;11.33;;;17.90;99.90;;;;;;5060848;28;20207;-83
2021/07/28 02:14:01;;;;;;;12.57;11.27;;;17.80;99.90;;;;;;5054893;28;20461;-83
2021/07/28 02:16:30;;;;;;;14.80;13.30;;;17.70;99.90;;;;;;5052970;28;20495;-82
2021/07/28 02:18:57;;;;;;;13.37;11.37;;;17.70;99.90;;;;;;5057906;28;20445;-83
2021/07/28 02:21:24;;;;;;;13.77;12.33;;;17.70;99.90;;;;;;5058687;28;20459;-84
2021/07/28 02:23:52;;;;;;;14.15;11.88;;;17.70;99.90;;;;;;5058355;28;20469;-83
2021/07/28 02:26:19;;;;;;;14.77;13.00;;;17.70;99.90;;;;;;5053369;28;20235;-83
2021/07/28 02:28:46;;;;;;;16.40;13.40;;;17.60;99.90;;;;;;5057695;28;20481;-83
2021/07/28 02:31:13;;;;;;;16.17;12.23;;;17.60;99.90;;;;;;5060582;28;20441;-82
2021/07/28 02:33:41;;;;;;;15.60;12.88;;;17.70;99.90;;;;;;5061010;28;20827;-82
2021/07/28 02:36:08;;;;;;;13.63;12.20;;;17.60;99.90;;;;;;5051986;28;20219;-83
2021/07/28 02:38:36;;;;;;;15.25;12.43;;;17.50;99.90;;;;;;5061117;28;20458;-83
2021/07/28 02:41:03;;;;;;;17.25;13.45;;;17.50;99.90;;;;;;5062459;28;20221;-81
2021/07/28 02:43:31;;;;;;;18.07;15.10;;;17.50;99.90;;;;;;5047911;28;20668;-82
2021/07/28 02:45:58;;;;;;;15.60;13.38;;;17.40;99.90;;;;;;5056796;28;20529;-83
2021/07/28 02:48:25;;;;;;;17.17;15.10;;;17.40;99.90;;;;;;5058964;28;20202;-81
2021/07/28 02:50:53;;;;;;;16.13;14.43;;;17.30;99.90;;;;;;5058783;28;20446;-83
2021/07/28 02:53:22;;;;;;;16.63;14.33;;;17.30;99.90;;;;;;5060036;28;20221;-83
2021/07/28 02:55:49;;;;;;;19.45;15.15;;;17.30;99.90;;;;;;5070646;28;20900;-82
2021/07/28 02:58:16;;;;;;;17.63;14.25;;;17.30;99.90;;;;;;5063473;28;20213;-83
2021/07/28 03:00:43;;;;;;;18.50;14.25;;;17.40;99.90;;;;;;5067872;28;20200;-82
2021/07/28 03:03:10;;;;;;;17.55;14.75;;;17.40;99.90;;;;;;5047800;28;20213;-83
2021/07/28 03:05:38;;;;;;;18.33;13.77;;;17.50;99.90;;;;;;5050539;28;20217;-83
2021/07/28 03:08:06;;;;;;;13.88;12.43;;;17.50;99.90;;;;;;5053918;28;20455;-83
2021/07/28 03:10:33;;;;;;;16.92;14.90;;;17.60;99.90;;;;;;5055102;28;20233;-81
2021/07/28 03:13:00;;;;;;;16.80;14.47;;;17.60;99.90;;;;;;5062727;28;20206;-83
2021/07/28 03:15:27;;;;;;;18.70;15.30;;;17.60;99.90;;;;;;5062732;28;20912;-84
2021/07/28 03:17:54;;;;;;;14.35;12.48;;;17.60;99.90;;;;;;5059363;28;20931;-84
2021/07/28 03:20:22;;;;;;;17.17;13.80;;;17.60;99.90;;;;;;5050211;28;20224;-83
2021/07/28 03:22:49;;;;;;;16.10;14.40;;;17.60;99.90;;;;;;5061880;28;20441;-84
2021/07/28 03:25:17;;;;;;;15.43;13.77;;;17.60;99.90;;;;;;5065029;28;20454;-81
2021/07/28 03:27:44;;;;;;;16.40;13.40;;;17.70;99.90;;;;;;5053386;28;20454;-83
2021/07/28 03:30:12;;;;;;;21.63;15.23;;;17.70;99.90;;;;;;5052305;28;20490;-82
2021/07/28 03:32:39;;;;;;;21.10;15.87;;;17.60;99.90;;;;;;5069338;28;20450;-81
2021/07/28 03:35:07;;;;;;;14.20;12.48;;;17.60;99.90;;;;;;5079351;28;20450;-81
2021/07/28 03:37:34;;;;;;;18.50;13.95;;;17.70;99.90;;;;;;5067131;28;20226;-81
2021/07/28 03:40:01;;;;;;;17.47;13.30;;;17.60;99.90;;;;;;5079723;28;20247;-82
2021/07/28 03:42:31;;;;;;;18.80;14.13;;;17.70;99.90;;;;;;5076069;28;20449;-81
2021/07/28 03:44:59;;;;;;;16.43;14.57;;;17.70;99.90;;;;;;5065538;28;20440;-82
2021/07/28 03:47:26;;;;;;;15.60;12.23;;;17.70;99.90;;;;;;5077731;28;20495;-82
2021/07/28 03:49:53;;;;;;;16.30;14.53;;;17.70;99.90;;;;;;5059864;28;20849;-81
2021/07/28 03:52:21;;;;;;;16.70;13.37;;;17.80;99.90;;;;;;5079385;28;20454;-81
2021/07/28 03:54:48;;;;;;;16.57;14.57;;;17.80;99.90;;;;;;5067075;28;20456;-82
2021/07/28 03:57:15;;;;;;;14.87;12.70;;;17.80;99.90;;;;;;5060216;28;20472;-82
2021/07/28 03:59:44;;;;;;;18.33;14.33;;;17.80;99.90;;;;;;5062464;28;20452;-81
2021/07/28 04:02:12;;;;;;;17.30;15.27;;;17.80;99.90;;;;;;5068031;28;20453;-82
2021/07/28 04:04:39;;;;;;;17.40;14.70;;;17.80;99.90;;;;;;5067448;28;20471;-82
2021/07/28 04:07:07;;;;;;;18.17;14.73;;;17.90;99.90;;;;;;5073835;28;20473;-82
2021/07/28 04:09:34;;;;;;;17.23;13.57;;;17.90;99.90;;;;;;5073392;28;20521;-81
2021/07/28 04:12:01;;;;;;;15.45;12.93;;;18.00;99.90;;;;;;5071196;28;20452;-82
2021/07/28 04:14:28;;;;;;;19.60;14.57;;;17.90;99.90;;;;;;5053233;28;20204;-82
2021/07/28 04:16:57;;;;;;;17.50;14.80;;;17.90;99.90;;;;;;5068703;28;20474;-83
2021/07/28 04:19:24;;;;;;;18.43;15.27;;;17.90;99.90;;;;;;5061098;28;20452;-82
2021/07/28 04:21:51;;;;;;;19.40;14.40;;;17.90;99.90;;;;;;5063224;28;20463;-84
2021/07/28 04:24:18;;;;;;;19.53;14.57;;;17.90;99.90;;;;;;5066530;28;20457;-82
2021/07/28 04:26:45;;;;;;;19.30;15.50;;;18.00;99.90;;;;;;5060630;28;20460;-84
2021/07/28 04:29:12;;;;;;;17.90;15.67;;;18.00;99.90;;;;;;5060346;28;20492;-84
2021/07/28 04:31:39;;;;;;;21.00;15.80;;;18.10;99.90;;;;;;5043275;28;20462;-84
2021/07/28 04:34:11;;;;;;;16.90;15.10;;;18.10;99.90;;;;;;5061391;28;20446;-84
2021/07/28 04:36:38;;;;;;;20.80;15.97;;;17.90;99.90;;;;;;5046398;28;20454;-84
2021/07/28 04:39:05;;;;;;;21.63;16.93;;;18.00;99.90;;;;;;5060861;28;20472;-83
2021/07/28 04:41:32;;;;;;;25.13;15.77;;;18.10;99.90;;;;;;5061334;28;20947;-83
2021/07/28 04:44:00;;;;;;;20.40;16.93;;;18.10;99.90;;;;;;5056409;28;20449;-84
2021/07/28 04:46:27;;;;;;;20.30;16.77;;;18.20;99.90;;;;;;5064303;28;20467;-85
2021/07/28 04:48:55;;;;;;;19.23;16.47;;;18.10;99.90;;;;;;5053075;28;20442;-84
2021/07/28 04:51:23;;;;;;;22.90;15.90;;;18.20;99.90;;;;;;5063073;28;20488;-84
2021/07/28 04:53:50;;;;;;;21.63;16.60;;;18.40;99.90;;;;;;5058023;28;20800;-84
2021/07/28 04:56:17;;;;;;;19.97;15.67;;;18.40;99.90;;;;;;5061694;28;20468;-83
2021/07/28 04:58:44;;;;;;;20.03;16.50;;;18.30;99.90;;;;;;5060715;28;20445;-84
2021/07/28 05:01:11;;;;;;;21.60;15.70;;;18.40;99.90;;;;;;5063350;28;20458;-84
2021/07/28 05:03:39;;;;;;;21.47;17.57;;;18.40;99.90;;;;;;5061497;28;20460;-84
2021/07/28 05:06:06;;;;;;;24.00;18.80;;;18.80;99.90;;;;;;5053782;28;20465;-83
2021/07/28 05:08:34;;;;;;;17.87;15.00;;;19.50;99.90;;;;;;5063987;28;20445;-84
2021/07/28 05:11:01;;;;;;;23.83;15.60;;;20.30;99.90;;;;;;5062751;28;20493;-83
2021/07/28 05:13:28;;;;;;;22.37;16.30;;;20.40;99.90;;;;;;5066564;28;20447;-84
2021/07/28 05:15:56;;;;;;;21.97;18.00;;;20.30;99.90;;;;;;5065272;28;20476;-84
2021/07/28 05:18:23;;;;;;;19.57;15.43;;;20.30;99.90;;;;;;5062048;28;20443;-84
2021/07/28 05:20:50;;;;;;;28.20;19.97;;;20.60;99.90;;;;;;5065559;28;20478;-85
2021/07/28 05:23:17;;;;;;;16.60;14.83;;;21.20;99.90;;;;;;5062077;28;20446;-84
2021/07/28 05:25:46;;;;;;;20.67;15.67;;;21.80;99.90;;;;;;5055586;28;20434;-84
2021/07/28 05:28:13;;;;;;;19.63;15.93;;;22.30;99.90;;;;;;5069344;28;20458;-83
2021/07/28 05:30:40;;;;;;;19.10;15.57;;;22.80;99.90;;;;;;5075832;28;20493;-83
2021/07/28 05:33:07;;;;;;;15.77;14.17;;;23.30;99.90;;;;;;5063503;28;20445;-82
2021/07/28 05:35:34;;;;;;;17.63;13.43;;;23.60;99.90;;;;;;5066070;28;20438;-84
2021/07/28 05:38:03;;;;;;;21.67;15.47;;;23.50;99.90;;;;;;5074674;28;20450;-83
2021/07/28 05:40:31;;;;;;;15.83;14.23;;;23.50;99.90;;;;;;5074577;28;20433;-82
2021/07/28 05:42:59;;;;;;;15.37;13.50;;;23.50;99.90;;;;;;5071256;28;20458;-83
2021/07/28 05:45:26;;;;;;;16.03;14.43;;;23.50;99.90;;;;;;5056345;28;20954;-82
2021/07/28 05:47:53;;;;;;;17.17;13.87;;;23.20;99.90;;;;;;5057140;28;20453;-83
2021/07/28 05:50:20;;;;;;;20.73;16.60;;;23.00;99.90;;;;;;5058241;28;20481;-83
2021/07/28 05:52:47;;;;;;;16.80;13.23;;;23.50;99.90;;;;;;5063934;28;20446;-83
2021/07/28 05:55:15;;;;;;;16.40;14.10;;;23.90;99.90;;;;;;5062007;28;20815;-85
2021/07/28 05:57:42;;;;;;;14.97;13.13;;;24.20;99.90;;;;;;5065746;28;20473;-84
2021/07/28 06:00:12;;;;;;;14.50;12.80;;;24.50;99.90;;;;;;5064347;28;20447;-85
2021/07/28 06:02:39;;;;;;;15.57;12.30;;;24.70;99.90;;;;;;5059730;28;20447;-84
2021/07/28 06:05:07;;;;;;;16.03;14.43;;;23.90;99.90;;;;;;5061938;28;20461;-85
2021/07/28 06:07:34;;;;;;;22.03;19.73;;;23.00;99.90;;;;;;5054657;28;20467;-85
2021/07/28 06:10:01;;;;;;;14.77;13.10;;;22.80;99.90;;;;;;5070812;28;20476;-84
2021/07/28 06:12:29;;;;;;;16.47;14.27;;;22.60;99.90;;;;;;5060577;28;20418;-85
2021/07/28 06:14:56;;;;;;;18.90;13.37;;;22.50;99.90;;;;;;5058017;28;20471;-83
2021/07/28 06:17:24;;;;;;;17.53;14.53;;;22.30;99.90;;;;;;5064368;28;20466;-83
2021/07/28 06:19:51;;;;;;;15.47;13.63;;;21.80;99.90;;;;;;5060134;28;20452;-82
2021/07/28 06:22:18;;;;;;;19.17;16.27;;;21.40;99.90;;;;;;5063107;28;20437;-83
2021/07/28 06:24:46;;;;;;;17.60;14.57;;;21.30;99.90;;;;;;5055452;28;20452;-83
2021/07/28 06:27:13;;;;;;;15.23;13.47;;;21.60;99.90;;;;;;5056711;28;20480;-82
2021/07/28 06:29:40;;;;;;;16.20;14.13;;;22.10;99.90;;;;;;5062641;28;20438;-82
2021/07/28 06:32:07;;;;;;;15.93;12.80;;;22.40;99.90;;;;;;5061556;28;20449;-82
2021/07/28 06:34:36;;;;;;;16.03;12.37;;;22.20;99.90;;;;;;5066297;28;20453;-83
2021/07/28 06:37:03;;;;;;;17.10;11.90;;;21.80;99.90;;;;;;5059019;28;20478;-84
2021/07/28 06:39:30;;;;;;;16.47;11.80;;;21.80;99.90;;;;;;5069501;28;20559;-83
2021/07/28 06:41:58;;;;;;;18.77;13.43;;;21.70;99.90;;;;;;5068236;28;20471;-85
2021/07/28 16:38:49;;;;;;;3.93;3.07;;;24.00;92.00;;;;;;4987170;28;20539;-85
2021/07/28 16:41:16;;;;;;;5.37;3.20;;;23.90;92.30;;;;;;4992220;28;20472;-84
2021/07/28 16:43:49;;;;;;;3.50;2.90;;;24.00;92.10;;;;;;4995732;28;20501;-87
2021/07/28 16:46:16;;;;;;;3.87;2.67;;;23.80;92.20;;;;;;4997773;28;20454;-88
2021/07/28 16:48:54;;;;;;;3.20;2.50;;;23.80;92.20;;;;;;4998775;28;20501;-86
2021/07/28 16:51:27;;;;;;;8.10;3.20;;;23.70;92.60;;;;;;4995619;28;20556;-86
2021/07/28 16:54:17;;;;;;;3.80;3.20;;;23.80;92.70;;;;;;4987044;28;20446;-85
2021/07/28 16:57:09;;;;;;;4.70;2.77;;;23.80;92.50;;;;;;4990620;28;20476;-86
2021/07/28 17:00:00;;;;;;;5.90;3.10;;;23.80;92.70;;;;;;4980399;28;20437;-86
2021/07/28 17:02:36;;;;;;;4.10;2.73;;;23.80;92.90;;;;;;4988078;28;20457;-87
2021/07/28 17:05:05;;;;;;;5.17;3.03;;;23.70;93.00;;;;;;4985981;28;20452;-84
2021/07/28 17:07:53;;;;;;;6.90;3.40;;;23.80;92.90;;;;;;4980207;28;20541;-86
2021/07/28 17:10:28;;;;;;;5.70;3.17;;;23.80;92.80;;;;;;4989041;28;20462;-86
2021/07/28 17:13:03;;;;;;;3.80;3.13;;;23.70;93.10;;;;;;4990207;28;20465;-85
2021/07/28 17:15:36;;;;;;;4.57;3.10;;;23.90;93.00;;;;;;4981719;28;20441;-85
2021/07/28 17:18:28;;;;;;;6.30;2.83;;;23.80;93.20;;;;;;4991698;28;20509;-86
2021/07/28 17:21:01;;;;;;;4.53;2.70;;;23.80;93.10;;;;;;4986794;28;20426;-86
2021/07/28 17:23:38;;;;;;;3.87;2.60;;;23.80;93.30;;;;;;4983939;28;20460;-85
2021/07/28 17:26:23;;;;;;;8.17;3.20;;;23.80;93.60;;;;;;4995024;28;20438;-84
2021/07/28 17:29:00;;;;;;;3.87;2.43;;;23.80;93.40;;;;;;4995834;28;20601;-85
2021/07/28 17:38:03;;;;;;;;;;;;;;;;;;;;;
2021/07/28 17:40:35;;;;;;;5.23;3.13;;;23.60;93.20;;;;;;4983699;28;20452;-85
2021/07/28 17:43:06;;;;;;;3.70;3.40;;;23.40;93.30;;;;;;4989326;28;20446;-86
2021/07/28 17:45:36;;;;;;;4.90;2.63;;;23.40;93.90;;;;;;4987476;28;20458;-86
2021/07/28 17:48:06;;;;;;;3.73;2.63;;;23.20;93.90;;;;;;4991874;28;20512;-84
2021/07/28 17:50:33;;;;;;;5.10;3.40;;;23.20;94.00;;;;;;4979105;28;20442;-85
2021/07/28 17:53:01;;;;;;;4.60;2.50;;;23.20;94.00;;;;;;4991449;28;20455;-86
2021/07/28 17:55:29;;;;;;;5.90;3.67;;;23.00;94.00;;;;;;4990564;28;20450;-85
2021/07/28 17:57:56;;;;;;;4.43;2.77;;;22.90;94.40;;;;;;4989019;28;20441;-84
2021/07/28 18:00:25;;;;;;;6.07;3.00;;;22.70;94.20;;;;;;4988402;28;20453;-84
2021/07/28 18:02:53;;;;;;;4.37;2.80;;;22.70;94.50;;;;;;4987463;28;20690;-84
2021/07/28 18:05:38;;;;;;;3.30;2.93;;;22.50;94.60;;;;;;4989752;28;20449;-85
2021/07/28 18:08:09;;;;;;;3.47;3.17;;;22.50;95.20;;;;;;4990567;28;20444;-86
2021/07/28 18:10:40;;;;;;;3.00;2.70;;;22.40;95.30;;;;;;4993076;28;20432;-86
2021/07/28 18:13:10;;;;;;;3.30;2.53;;;22.40;95.40;;;;;;4989885;28;20549;-85
2021/07/28 18:15:40;;;;;;;6.67;3.00;;;22.50;95.70;;;;;;4987669;28;20453;-86
2021/07/28 18:18:08;;;;;;;5.10;2.57;;;22.30;95.80;;;;;;4985580;28;20946;-85
2021/07/28 18:20:35;;;;;;;3.37;2.37;;;22.50;95.80;;;;;;4987318;28;20434;-84
2021/07/28 18:23:02;;;;;;;6.43;2.60;;;22.50;95.90;;;;;;4988375;28;20841;-85
2021/07/28 18:25:34;;;;;;;3.70;2.63;;;22.50;96.00;;;;;;4990851;28;20440;-86
2021/07/28 18:28:15;;;;;;;3.90;2.70;;;22.50;96.00;;;;;;4990993;28;20548;-85
2021/07/28 18:31:00;;;;;;;5.50;2.57;;;22.50;96.20;;;;;;4991445;28;20525;-85
2021/07/28 18:33:29;;;;;;;6.53;3.60;;;22.40;96.30;;;;;;4981256;28;20437;-86
2021/07/28 18:36:19;;;;;;;2.97;2.67;;;22.40;96.40;;;;;;4993738;28;20470;-84
2021/07/28 18:39:03;;;;;;;6.07;2.83;;;22.30;96.90;;;;;;4992004;28;20466;-86
2021/07/28 18:41:30;;;;;;;5.03;3.13;;;22.30;97.30;;;;;;4982429;28;20801;-85
2021/07/28 18:44:09;;;;;;;5.13;2.93;;;22.20;97.50;;;;;;4995648;28;20457;-85
2021/07/28 18:46:39;;;;;;;7.63;2.70;;;22.10;97.80;;;;;;4996543;28;20550;-84
2021/07/28 18:54:53;;;;;;;6.93;3.43;;;21.90;98.80;;;;;;4974289;28;20441;-86
2021/07/28 18:57:56;;;;;;;10.40;4.07;;;21.90;99.10;;;;;;4966560;29;20561;-86
2021/07/28 19:00:35;;;;;;;5.60;3.30;;;21.70;99.40;;;;;;4972856;28;20553;-84
2021/07/28 19:03:40;;;;;;;5.57;2.90;;;21.60;99.90;;;;;;4975633;29;20456;-85
2021/07/28 19:06:20;;;;;;;3.33;2.83;;;21.50;99.70;;;;;;4967571;29;20500;-85
2021/07/28 19:09:07;;;;;;;5.03;2.80;;;21.60;99.90;;;;;;4975147;28;20465;-84
2021/07/28 19:11:38;;;;;;;4.40;2.80;;;21.60;99.90;;;;;;4969743;29;20528;-85
2021/07/28 19:20:47;;;;;;;9.27;5.53;;;21.10;99.90;;;;;;4864845;29;20466;-87
2021/07/28 19:23:29;;;;;;;6.97;3.63;;;20.60;99.90;;;;;;4976155;28;20478;-87
2021/07/28 19:26:32;;;;;;;4.30;3.63;;;20.10;99.90;;;;;;4981212;28;20469;-87
2021/07/28 19:29:00;;;;;;;7.33;3.90;;;19.80;99.90;;;;;;4981557;28;20442;-88
2021/07/28 19:32:04;;;;;;;4.93;3.70;;;19.60;99.90;;;;;;4981554;28;20462;-87
2021/07/28 19:34:32;;;;;;;4.90;3.10;;;19.40;99.90;;;;;;4971518;28;20442;-85
2021/07/28 19:37:02;;;;;;;7.23;3.80;;;19.20;99.90;;;;;;4975202;28;20543;-85
2021/07/28 19:39:34;;;;;;;4.10;3.43;;;18.90;99.90;;;;;;4976363;28;20470;-87
2021/07/28 19:42:04;;;;;;;4.20;3.80;;;19.00;99.90;;;;;;4972057;28;20431;-86
2021/07/28 19:44:32;;;;;;;5.03;4.10;;;18.90;99.90;;;;;;4963006;28;20447;-85
2021/07/28 19:47:03;;;;;;;4.33;3.80;;;18.80;99.90;;;;;;4961232;29;20459;-82
2021/07/28 21:14:36;;;;;;;3.80;3.10;;;17.90;99.90;;;;;;4935388;29;20428;-86
2021/07/28 21:17:06;;;;;;;3.90;3.50;;;17.90;99.90;;;;;;4914167;29;20556;-87
2021/07/28 21:19:39;;;;;;;7.20;4.63;;;17.80;99.90;;;;;;4932692;29;20895;-86
2021/07/28 21:22:21;;;;;;;5.63;3.60;;;17.80;99.90;;;;;;4933079;29;20442;-85
2021/07/28 21:24:52;;;;;;;5.23;4.00;;;17.80;99.90;;;;;;4948336;29;20495;-85
2021/07/28 21:27:19;;;;;;;6.80;5.10;;;17.80;99.90;;;;;;4951847;29;20463;-84
2021/07/28 21:29:49;;;;;;;4.90;4.40;;;17.80;99.90;;;;;;4954602;29;20515;-85
2021/07/28 21:36:02;;;;;;;5.25;4.45;;;17.80;99.90;;;;;;4908499;29;20217;-85
2021/07/28 21:38:33;;;;;;;8.53;4.23;;;17.70;99.90;;;;;;4948746;28;20220;-85
2021/07/28 22:10:05;;;;;;;6.95;4.72;;;17.30;99.90;;;;;;4894099;29;20680;-86
2021/07/28 22:26:58;;;;;;;6.82;4.68;;;17.30;99.90;;;;;;4875549;29;20223;-86
2021/07/28 22:30:38;;;;;;;5.82;3.83;;;17.50;99.90;;;;;;4908940;29;20209;-85
2021/07/28 22:34:10;;;;;;;7.00;4.70;;;17.60;99.90;;;;;;4921985;29;20225;-88
2021/07/28 22:58:15;;;;;;;7.03;4.53;;;17.60;99.90;;;;;;4887985;29;20218;-87
2021/07/28 23:13:37;;;;;;;;;;;;;;;;;;;;;
